Time;durP1;ratioP1;P1;durP2;ratioP2;P2;SDS_P1;SDS_P2;PMS_P1;PMS_P2;Temp;Humidity;BMP_temperature;BMP_pressure;BME280_temperature;BME280_humidity;BME280_pressure;Samples;Min_cycle;Max_cycle;Signal;HPM_P1;HPM_P2
2022/08/20 00:00:13;;;;;;;8.43;4.10;;;19.60;99.90;;;;;;5065791;28;20423;-74
2022/08/20 00:02:49;;;;;;;8.93;4.30;;;19.50;99.90;;;;;;5064060;28;20481;-75
2022/08/20 00:05:37;;;;;;;9.40;4.32;;;19.50;99.90;;;;;;5061866;28;20045;-74
2022/08/20 00:08:03;;;;;;;7.82;4.00;;;19.40;99.90;;;;;;5052155;28;20108;-73
2022/08/20 00:10:30;;;;;;;10.13;4.57;;;19.30;99.90;;;;;;5061218;28;20033;-74
2022/08/20 00:12:56;;;;;;;6.50;4.60;;;19.30;99.90;;;;;;5063082;28;20522;-74
2022/08/20 00:15:27;;;;;;;8.38;4.22;;;19.30;99.90;;;;;;5064024;28;20029;-73
2022/08/20 00:17:53;;;;;;;8.82;4.10;;;19.20;99.90;;;;;;5062571;28;20056;-74
2022/08/20 00:20:22;;;;;;;10.05;3.88;;;19.30;99.90;;;;;;5061098;28;20049;-73
2022/08/20 00:22:48;;;;;;;9.07;4.55;;;19.70;99.90;;;;;;5062013;28;20094;-74
2022/08/20 00:25:14;;;;;;;8.07;3.90;;;19.20;99.90;;;;;;5064800;28;20092;-72
2022/08/20 00:27:39;;;;;;;10.38;4.28;;;19.40;99.90;;;;;;5064354;28;20044;-73
2022/08/20 00:30:08;;;;;;;9.68;4.13;;;19.20;99.90;;;;;;5042198;28;20091;-73
2022/08/20 00:32:50;;;;;;;11.35;4.10;;;19.20;99.90;;;;;;5060788;28;20090;-73
2022/08/20 00:35:20;;;;;;;9.80;4.75;;;19.10;99.90;;;;;;5053567;28;20060;-73
2022/08/20 00:37:45;;;;;;;10.27;3.80;;;19.10;99.90;;;;;;5062016;28;20393;-73
2022/08/20 00:40:14;;;;;;;9.88;4.15;;;19.10;99.90;;;;;;5064119;28;20040;-73
2022/08/20 00:42:47;;;;;;;12.18;4.28;;;19.10;99.90;;;;;;5063672;28;20040;-73
2022/08/20 00:45:13;;;;;;;7.60;4.20;;;19.60;99.90;;;;;;5060229;28;20048;-73
2022/08/20 00:47:41;;;;;;;9.27;3.63;;;19.30;99.90;;;;;;5061119;28;20040;-72
2022/08/20 00:50:07;;;;;;;10.60;4.70;;;19.40;99.90;;;;;;5064015;28;20047;-72
2022/08/20 00:52:34;;;;;;;13.13;4.40;;;19.10;99.90;;;;;;5063536;28;20040;-72
2022/08/20 00:55:02;;;;;;;10.00;4.00;;;19.00;99.90;;;;;;5060871;28;20033;-72
2022/08/20 00:57:33;;;;;;;11.57;4.40;;;19.00;99.90;;;;;;5059803;28;20044;-73
2022/08/20 01:00:01;;;;;;;8.43;3.80;;;19.00;99.90;;;;;;5063487;28;20040;-72
2022/08/20 01:02:30;;;;;;;10.15;4.22;;;19.40;99.90;;;;;;5064138;28;20127;-72
2022/08/20 01:04:56;;;;;;;7.28;4.20;;;19.00;99.90;;;;;;5060759;28;20101;-72
2022/08/20 01:07:31;;;;;;;9.93;3.83;;;19.00;99.90;;;;;;5060448;28;20044;-73
2022/08/20 01:09:58;;;;;;;10.70;3.88;;;19.00;99.90;;;;;;5062303;28;20056;-73
2022/08/20 01:12:24;;;;;;;11.45;4.10;;;19.00;99.90;;;;;;5063482;28;20036;-72
2022/08/20 01:14:51;;;;;;;8.82;3.35;;;19.00;99.90;;;;;;5062039;28;20052;-73
2022/08/20 01:17:22;;;;;;;9.77;4.20;;;19.00;99.90;;;;;;5060668;28;20041;-75
2022/08/20 01:19:56;;;;;;;8.63;4.22;;;19.10;99.90;;;;;;5060474;28;20045;-74
2022/08/20 01:25:48;;;;;;;11.05;4.10;;;18.90;99.90;;;;;;5054492;28;20084;-73
2022/08/20 01:28:18;;;;;;;11.30;4.13;;;18.80;99.90;;;;;;5035205;28;20041;-74
2022/08/20 01:30:44;;;;;;;7.43;3.83;;;18.80;99.90;;;;;;5060235;28;20384;-73
2022/08/20 01:33:10;;;;;;;7.00;3.45;;;18.80;99.90;;;;;;5062517;28;20032;-74
2022/08/20 01:35:38;;;;;;;9.27;3.90;;;18.90;99.90;;;;;;5063299;28;20088;-73
2022/08/20 01:38:05;;;;;;;9.77;3.55;;;18.90;99.90;;;;;;5059780;28;20044;-75
2022/08/20 01:41:03;;;;;;;11.68;4.30;;;18.80;99.90;;;;;;5058645;28;20136;-75
2022/08/20 01:43:29;;;;;;;14.45;3.95;;;18.80;99.90;;;;;;5045304;28;20064;-73
2022/08/20 01:45:54;;;;;;;13.35;4.43;;;18.70;99.90;;;;;;5061262;28;20068;-75
2022/08/20 01:48:21;;;;;;;9.60;3.85;;;18.70;99.90;;;;;;5062546;28;20035;-75
2022/08/20 01:51:12;;;;;;;10.43;4.40;;;18.60;99.90;;;;;;5061692;28;20500;-75
2022/08/20 01:53:42;;;;;;;6.93;3.78;;;18.60;99.90;;;;;;5058886;28;20033;-75
2022/08/20 01:56:15;;;;;;;7.60;3.97;;;18.60;99.90;;;;;;5051383;28;20037;-75
2022/08/20 01:58:45;;;;;;;10.60;3.97;;;18.50;99.90;;;;;;5059166;28;20459;-75
2022/08/20 02:01:22;;;;;;;8.70;3.88;;;18.40;99.90;;;;;;5062448;28;20127;-74
2022/08/20 02:03:48;;;;;;;10.93;4.03;;;18.40;99.90;;;;;;5061884;28;20045;-73
2022/08/20 02:06:14;;;;;;;11.65;4.30;;;19.00;99.90;;;;;;5058254;28;20048;-73
2022/08/20 02:08:40;;;;;;;6.25;3.55;;;18.50;99.90;;;;;;5058095;28;20041;-73
2022/08/20 02:11:07;;;;;;;9.93;3.80;;;18.50;99.90;;;;;;5061391;28;20036;-73
2022/08/20 02:13:32;;;;;;;9.35;4.18;;;18.50;99.90;;;;;;5062881;28;20058;-73
2022/08/20 02:15:58;;;;;;;12.60;4.22;;;18.40;99.90;;;;;;5059701;28;20472;-73
2022/08/20 02:18:24;;;;;;;10.23;3.72;;;18.50;99.90;;;;;;5058922;28;20041;-73
2022/08/20 02:20:51;;;;;;;10.18;3.47;;;18.40;99.90;;;;;;5041985;28;20071;-73
2022/08/20 02:23:17;;;;;;;11.07;3.38;;;18.40;99.90;;;;;;5061760;28;20108;-73
2022/08/20 02:25:46;;;;;;;7.38;3.28;;;18.50;99.90;;;;;;5062903;28;20093;-73
2022/08/20 02:28:16;;;;;;;14.02;4.43;;;18.40;99.90;;;;;;5059408;28;20056;-74
2022/08/20 02:30:46;;;;;;;9.43;3.63;;;18.70;99.90;;;;;;5058331;28;20037;-74
2022/08/20 02:33:14;;;;;;;11.95;3.28;;;18.40;99.90;;;;;;5049848;28;20566;-75
2022/08/20 02:35:41;;;;;;;10.30;3.50;;;18.40;99.90;;;;;;5057840;28;20120;-72
2022/08/20 02:38:08;;;;;;;9.40;4.10;;;18.30;99.90;;;;;;5061460;28;20396;-73
2022/08/20 02:40:34;;;;;;;7.20;3.42;;;18.80;99.90;;;;;;5062312;28;20076;-72
2022/08/20 02:43:02;;;;;;;8.73;3.95;;;18.30;99.90;;;;;;5058345;28;20041;-72
2022/08/20 02:45:30;;;;;;;8.25;3.30;;;18.30;99.90;;;;;;5058998;28;20037;-72
2022/08/20 02:47:57;;;;;;;9.45;3.30;;;18.30;99.90;;;;;;5060471;28;20623;-72
2022/08/20 02:50:25;;;;;;;10.00;3.25;;;18.30;99.90;;;;;;5060100;28;20127;-72
2022/08/20 02:52:51;;;;;;;7.80;3.13;;;18.20;99.90;;;;;;5061340;28;20436;-72
2022/08/20 02:55:16;;;;;;;9.95;3.53;;;18.30;99.90;;;;;;5059248;28;20044;-72
2022/08/20 02:57:42;;;;;;;9.13;4.28;;;18.20;99.90;;;;;;5062354;28;20032;-73
2022/08/20 03:00:13;;;;;;;9.15;3.38;;;18.40;99.90;;;;;;5065685;28;20059;-73
2022/08/20 03:02:39;;;;;;;14.23;3.60;;;18.20;99.90;;;;;;5066394;28;20415;-74
2022/08/20 03:05:06;;;;;;;11.75;3.33;;;18.20;99.90;;;;;;5062641;28;20543;-75
2022/08/20 03:07:32;;;;;;;9.77;2.97;;;18.20;99.90;;;;;;5061625;28;20463;-72
2022/08/20 03:09:58;;;;;;;6.63;2.95;;;18.20;99.90;;;;;;5064154;28;20041;-72
2022/08/20 03:12:24;;;;;;;9.65;3.08;;;18.10;99.90;;;;;;5065630;28;20391;-72
2022/08/20 03:14:49;;;;;;;12.98;2.65;;;18.10;99.90;;;;;;5065642;28;20055;-72
2022/08/20 03:17:15;;;;;;;10.02;2.92;;;18.00;99.90;;;;;;5062628;28;20033;-72
2022/08/20 03:19:41;;;;;;;6.30;2.70;;;18.10;99.90;;;;;;5062035;28;20544;-72
2022/08/20 03:22:06;;;;;;;10.68;2.83;;;18.10;99.90;;;;;;5065188;28;20040;-73
2022/08/20 03:24:32;;;;;;;12.35;3.90;;;18.00;99.90;;;;;;5065841;28;20432;-72
2022/08/20 03:26:57;;;;;;;15.23;4.70;;;17.90;99.90;;;;;;5045595;28;20523;-73
2022/08/20 03:29:23;;;;;;;7.78;3.17;;;17.90;99.90;;;;;;5060891;28;20036;-76
2022/08/20 03:31:48;;;;;;;9.48;2.72;;;17.80;99.90;;;;;;5061706;28;20045;-74
2022/08/20 03:34:14;;;;;;;9.85;3.40;;;18.00;99.90;;;;;;5065161;28;20048;-75
2022/08/20 03:36:40;;;;;;;7.78;2.50;;;17.90;99.90;;;;;;5065728;28;20041;-73
2022/08/20 03:39:10;;;;;;;7.18;2.45;;;17.80;99.90;;;;;;5062215;28;20101;-73
2022/08/20 03:41:37;;;;;;;7.20;2.72;;;18.10;99.90;;;;;;5062488;28;20087;-73
2022/08/20 03:44:04;;;;;;;10.77;2.28;;;17.90;99.90;;;;;;5064231;28;20045;-73
2022/08/20 03:46:30;;;;;;;7.85;2.15;;;18.60;99.90;;;;;;5063792;28;20131;-72
2022/08/20 03:48:56;;;;;;;8.30;2.55;;;17.80;99.90;;;;;;5062997;28;20127;-72
2022/08/20 03:51:21;;;;;;;7.82;2.58;;;17.80;99.90;;;;;;5061965;28;20477;-73
2022/08/20 03:53:47;;;;;;;8.05;2.15;;;18.30;99.90;;;;;;5061307;28;20041;-73
2022/08/20 03:56:12;;;;;;;8.10;2.42;;;17.80;99.90;;;;;;5065446;28;20036;-73
2022/08/20 03:58:38;;;;;;;6.53;2.08;;;17.90;99.90;;;;;;5063672;28;20052;-75
2022/08/20 04:01:05;;;;;;;8.15;2.45;;;17.70;99.90;;;;;;5062881;28;20141;-75
2022/08/20 04:03:31;;;;;;;10.32;1.77;;;17.70;99.90;;;;;;5060409;28;20049;-74
2022/08/20 04:05:57;;;;;;;10.88;2.38;;;17.70;99.90;;;;;;5062837;28;20048;-73
2022/08/20 04:08:25;;;;;;;11.25;2.90;;;17.90;99.90;;;;;;5062327;28;20059;-73
2022/08/20 04:10:53;;;;;;;11.95;2.55;;;17.70;99.90;;;;;;5064882;28;20058;-73
2022/08/20 04:13:20;;;;;;;8.60;2.40;;;17.60;99.90;;;;;;5061726;28;20243;-73
2022/08/20 04:15:47;;;;;;;7.88;2.10;;;17.60;99.90;;;;;;5061004;28;20040;-72
2022/08/20 04:18:14;;;;;;;13.07;2.50;;;17.50;99.90;;;;;;5064750;28;20385;-73
2022/08/20 04:20:42;;;;;;;6.18;2.15;;;17.50;99.90;;;;;;5064759;28;20029;-73
2022/08/20 04:23:08;;;;;;;9.80;2.70;;;17.40;99.90;;;;;;5061377;28;20563;-74
2022/08/20 04:25:36;;;;;;;7.32;2.28;;;17.30;99.90;;;;;;5061773;28;20479;-72
2022/08/20 04:28:04;;;;;;;5.93;1.83;;;18.30;99.90;;;;;;5063035;28;20106;-72
2022/08/20 04:30:31;;;;;;;7.07;2.25;;;17.90;99.90;;;;;;5063951;28;20075;-74
2022/08/20 04:32:58;;;;;;;6.90;1.85;;;17.30;99.90;;;;;;5064587;28;20094;-75
2022/08/20 04:35:25;;;;;;;6.95;1.70;;;17.40;99.90;;;;;;5059348;28;20125;-74
2022/08/20 04:38:03;;;;;;;7.93;2.03;;;17.40;99.90;;;;;;5061256;28;20037;-73
2022/08/20 04:43:13;;;;;;;;;;;18.30;99.90;;;;;;5064209;28;20055;-73
2022/08/20 04:45:39;;;;;;;6.15;1.58;;;17.70;99.90;;;;;;5064463;28;20011;-72
2022/08/20 04:48:06;;;;;;;10.68;2.90;;;17.40;99.90;;;;;;5062875;28;20119;-73
2022/08/20 04:50:35;;;;;;;9.27;2.33;;;17.30;99.90;;;;;;5059902;28;20037;-73
2022/08/20 04:53:04;;;;;;;7.78;2.10;;;17.30;99.90;;;;;;5062105;28;20344;-72
2022/08/20 04:55:30;;;;;;;6.78;2.28;;;17.70;99.90;;;;;;5064883;28;20036;-72
2022/08/20 04:58:01;;;;;;;8.18;2.35;;;17.30;99.90;;;;;;5063416;28;20056;-73
2022/08/20 05:00:27;;;;;;;8.73;2.13;;;18.20;99.90;;;;;;5060495;28;20159;-73
2022/08/20 05:02:53;;;;;;;12.27;2.08;;;17.30;99.90;;;;;;5060915;28;20556;-74
2022/08/20 05:05:20;;;;;;;6.97;2.10;;;17.30;99.90;;;;;;5063432;28;20098;-72
2022/08/20 05:07:45;;;;;;;6.28;1.65;;;17.30;99.90;;;;;;5064290;28;20056;-74
2022/08/20 05:10:13;;;;;;;8.40;1.50;;;17.20;99.90;;;;;;5061461;28;20048;-73
2022/08/20 05:12:41;;;;;;;8.20;1.98;;;17.20;99.90;;;;;;5059971;28;20420;-73
2022/08/20 05:15:08;;;;;;;9.50;2.33;;;17.20;99.90;;;;;;5062010;28;20392;-72
2022/08/20 05:17:34;;;;;;;8.13;2.33;;;17.10;99.90;;;;;;5063303;28;20040;-72
2022/08/20 05:20:00;;;;;;;8.93;2.05;;;17.10;99.90;;;;;;5062719;28;20044;-73
2022/08/20 05:22:27;;;;;;;7.70;1.95;;;17.10;99.90;;;;;;5060504;28;20064;-72
2022/08/20 05:24:54;;;;;;;8.23;1.60;;;17.00;99.90;;;;;;5059741;28;20052;-72
2022/08/20 05:27:20;;;;;;;8.18;1.80;;;17.30;99.90;;;;;;5063399;28;20488;-72
2022/08/20 05:29:45;;;;;;;6.32;1.88;;;17.50;99.90;;;;;;5063353;28;20119;-73
2022/08/20 05:32:11;;;;;;;9.38;2.30;;;16.90;99.90;;;;;;5059625;28;20036;-72
2022/08/20 05:34:37;;;;;;;9.40;1.75;;;17.80;99.90;;;;;;5058940;28;20048;-72
2022/08/20 05:37:03;;;;;;;6.90;1.75;;;16.90;99.90;;;;;;5060907;28;20349;-72
2022/08/20 05:39:29;;;;;;;6.57;1.88;;;17.00;99.90;;;;;;5066607;28;20041;-72
2022/08/20 05:41:55;;;;;;;7.60;1.65;;;16.90;99.90;;;;;;5060193;28;20044;-71
2022/08/20 05:44:22;;;;;;;7.00;2.20;;;17.30;99.90;;;;;;5063107;28;20040;-72
2022/08/20 05:46:47;;;;;;;10.38;1.95;;;16.90;99.90;;;;;;5062771;28;20067;-73
2022/08/20 05:49:18;;;;;;;6.30;1.40;;;16.90;99.90;;;;;;5060973;28;20492;-73
2022/08/20 05:51:44;;;;;;;9.90;2.03;;;16.80;99.90;;;;;;5058640;28;20072;-72
2022/08/20 05:54:10;;;;;;;8.68;1.83;;;16.80;99.90;;;;;;5060636;28;20504;-71
2022/08/20 05:56:36;;;;;;;9.40;1.77;;;17.10;99.90;;;;;;5063076;28;20488;-74
2022/08/20 05:59:04;;;;;;;5.95;1.88;;;16.80;99.90;;;;;;5062417;28;20037;-73
2022/08/20 06:01:32;;;;;;;9.35;2.22;;;16.80;99.90;;;;;;5059089;28;20037;-72
2022/08/20 06:06:42;;;;;;;9.02;2.03;;;17.00;99.90;;;;;;5053992;28;20045;-73
2022/08/20 06:09:07;;;;;;;9.95;1.95;;;16.90;99.90;;;;;;5058795;28;20045;-73
2022/08/20 06:11:33;;;;;;;9.10;1.38;;;17.30;99.90;;;;;;5063024;28;20055;-74
2022/08/20 06:13:59;;;;;;;8.07;2.15;;;16.90;99.90;;;;;;5062403;28;20055;-75
2022/08/20 06:16:25;;;;;;;5.28;1.23;;;17.00;99.90;;;;;;5059521;28;20544;-74
2022/08/20 06:18:51;;;;;;;8.18;2.00;;;17.00;99.90;;;;;;5059086;28;20040;-72
2022/08/20 06:21:16;;;;;;;12.32;2.05;;;17.00;99.90;;;;;;5060918;28;20049;-72
2022/08/20 06:23:42;;;;;;;5.53;1.17;;;17.10;99.90;;;;;;5062703;28;20048;-72
2022/08/20 06:26:08;;;;;;;5.82;1.58;;;17.20;99.90;;;;;;5061703;28;20512;-72
2022/08/20 06:28:34;;;;;;;5.82;1.33;;;17.10;99.90;;;;;;5057171;28;20087;-72
2022/08/20 06:31:01;;;;;;;5.72;1.08;;;17.30;99.90;;;;;;5058908;28;20049;-72
2022/08/20 06:33:27;;;;;;;4.80;1.33;;;17.20;99.90;;;;;;5062597;28;20072;-72
2022/08/20 06:35:53;;;;;;;8.15;2.35;;;17.20;99.90;;;;;;5062231;28;20566;-72
2022/08/20 06:38:19;;;;;;;13.07;1.60;;;17.30;99.90;;;;;;5060133;28;20542;-73
2022/08/20 06:40:45;;;;;;;3.72;1.10;;;17.30;99.90;;;;;;5059323;28;20041;-74
2022/08/20 06:43:10;;;;;;;7.85;1.45;;;17.50;99.90;;;;;;5059345;28;20052;-74
2022/08/20 06:45:37;;;;;;;7.88;1.55;;;17.60;99.90;;;;;;5062640;28;20049;-74
2022/08/20 06:48:07;;;;;;;7.03;1.00;;;17.40;99.90;;;;;;5062530;28;20500;-72
2022/08/20 06:50:38;;;;;;;5.57;1.10;;;17.80;99.90;;;;;;5050597;28;20110;-74
2022/08/20 06:53:13;;;;;;;6.40;1.02;;;17.50;99.90;;;;;;5059460;28;20048;-72
2022/08/20 06:55:42;;;;;;;10.48;1.63;;;17.50;99.90;;;;;;5052420;28;20052;-73
2022/08/20 06:58:10;;;;;;;8.20;1.40;;;17.70;99.90;;;;;;5058853;28;20440;-74
2022/08/20 07:00:39;;;;;;;6.15;1.35;;;17.40;99.90;;;;;;5062357;28;20048;-71
2022/08/20 07:03:05;;;;;;;11.35;1.30;;;17.60;99.90;;;;;;5062063;28;20432;-73
2022/08/20 07:05:34;;;;;;;5.28;1.15;;;17.80;99.90;;;;;;5051289;28;20044;-73
2022/08/20 07:08:00;;;;;;;5.55;1.40;;;17.70;99.90;;;;;;5059112;28;20048;-73
2022/08/20 07:10:27;;;;;;;4.57;0.90;;;17.90;99.90;;;;;;5059705;28;20144;-72
2022/08/20 07:12:53;;;;;;;7.07;0.95;;;17.80;99.90;;;;;;5062407;28;20036;-73
2022/08/20 07:15:22;;;;;;;6.63;1.40;;;17.80;99.90;;;;;;5060745;28;20063;-74
2022/08/20 07:17:53;;;;;;;7.43;1.10;;;17.80;99.90;;;;;;5058537;28;20052;-74
2022/08/20 07:20:19;;;;;;;8.48;1.30;;;18.20;99.90;;;;;;5060401;28;20049;-75
2022/08/20 07:22:46;;;;;;;7.00;1.65;;;18.00;99.90;;;;;;5061235;28;20131;-74
2022/08/20 07:25:14;;;;;;;6.10;1.42;;;17.90;99.90;;;;;;5059521;28;20484;-73
2022/08/20 07:27:41;;;;;;;6.45;1.55;;;18.40;99.90;;;;;;5057776;28;20171;-73
2022/08/20 07:32:54;;;;;;;7.60;1.42;;;18.00;99.90;;;;;;5053570;28;20049;-73
2022/08/20 07:35:19;;;;;;;2.65;1.02;;;18.10;99.90;;;;;;5058806;28;20052;-72
2022/08/20 07:37:48;;;;;;;10.75;1.73;;;18.00;99.90;;;;;;5060496;28;20083;-72
2022/08/20 07:40:20;;;;;;;6.18;1.13;;;18.00;99.90;;;;;;5060975;28;20044;-72
2022/08/20 07:42:46;;;;;;;8.18;1.13;;;18.10;99.90;;;;;;5059443;28;20091;-72
2022/08/20 07:45:14;;;;;;;9.70;1.20;;;18.20;99.90;;;;;;5062093;28;20041;-72
2022/08/20 07:47:41;;;;;;;9.13;0.82;;;18.20;99.90;;;;;;5064407;28;20411;-71
2022/08/20 07:50:09;;;;;;;5.43;1.02;;;18.30;99.90;;;;;;5065255;28;20476;-72
2022/08/20 07:52:38;;;;;;;8.85;1.00;;;18.30;99.90;;;;;;5053393;28;20033;-73
2022/08/20 07:55:06;;;;;;;5.65;0.77;;;18.40;99.90;;;;;;5062164;28;20037;-72
2022/08/20 07:57:32;;;;;;;6.47;0.98;;;18.40;99.90;;;;;;5064478;28;20343;-72
2022/08/20 07:59:58;;;;;;;5.85;0.75;;;18.50;99.90;;;;;;5065239;28;20491;-73
2022/08/20 08:02:26;;;;;;;8.55;1.20;;;19.40;99.90;;;;;;5063631;28;20462;-72
2022/08/20 08:04:52;;;;;;;3.63;0.85;;;18.60;99.90;;;;;;5043277;28;20037;-73
2022/08/20 08:07:18;;;;;;;4.65;1.15;;;18.60;99.90;;;;;;5062714;28;20124;-73
2022/08/20 08:09:45;;;;;;;10.02;0.85;;;18.70;99.90;;;;;;5064860;28;20127;-73
2022/08/20 08:12:12;;;;;;;37.30;24.83;;;18.70;99.90;;;;;;5064431;28;20082;-73
2022/08/20 08:14:40;;;;;;;13.52;5.03;;;18.70;99.90;;;;;;5053822;28;20124;-73
2022/08/20 08:17:07;;;;;;;10.15;2.88;;;19.00;99.90;;;;;;5062105;28;20033;-73
2022/08/20 08:19:37;;;;;;;6.63;1.10;;;18.60;99.90;;;;;;5063374;28;20515;-73
2022/08/20 08:22:11;;;;;;;4.80;0.98;;;18.70;99.90;;;;;;5065095;28;20037;-73
2022/08/20 08:24:37;;;;;;;10.95;1.52;;;18.70;99.90;;;;;;5061587;28;20098;-74
2022/08/20 08:27:03;;;;;;;6.57;1.50;;;18.80;99.90;;;;;;5059860;28;20158;-73
2022/08/20 08:29:30;;;;;;;5.40;0.82;;;18.90;99.90;;;;;;5062224;28;20045;-73
2022/08/20 08:31:56;;;;;;;5.00;0.88;;;18.90;99.90;;;;;;5063757;28;20438;-75
2022/08/20 08:34:24;;;;;;;6.47;1.10;;;19.10;99.90;;;;;;5063165;28;20037;-73
2022/08/20 08:36:51;;;;;;;6.03;1.02;;;19.70;99.90;;;;;;5061453;28;20184;-73
2022/08/20 08:39:18;;;;;;;5.90;1.00;;;19.90;99.90;;;;;;5061189;28;20037;-72
2022/08/20 08:41:48;;;;;;;9.02;1.30;;;19.00;99.90;;;;;;5064724;28;20044;-73
2022/08/20 08:44:22;;;;;;;4.90;1.00;;;19.20;99.90;;;;;;5063543;28;20037;-75
2022/08/20 08:46:57;;;;;;;10.45;1.52;;;19.60;99.90;;;;;;5053409;28;20037;-75
2022/08/20 08:49:28;;;;;;;7.82;1.02;;;19.20;99.90;;;;;;5061642;28;20040;-73
2022/08/20 08:52:08;;;;;;;7.82;0.88;;;19.30;99.90;;;;;;5063178;28;20119;-74
2022/08/20 08:54:34;;;;;;;7.03;0.98;;;19.40;99.90;;;;;;5059648;28;20533;-74
2022/08/20 08:57:01;;;;;;;7.90;1.05;;;19.30;99.90;;;;;;5061310;28;20120;-73
2022/08/20 08:59:29;;;;;;;4.00;0.93;;;19.40;99.90;;;;;;5061823;28;20036;-74
2022/08/20 09:01:58;;;;;;;8.35;1.02;;;19.40;99.90;;;;;;5063612;28;20365;-73
2022/08/20 09:04:36;;;;;;;8.55;1.73;;;19.50;99.90;;;;;;5063345;28;20464;-73
2022/08/20 09:07:06;;;;;;;4.82;1.17;;;20.10;99.90;;;;;;5059622;28;20496;-74
2022/08/20 09:09:35;;;;;;;5.72;1.00;;;19.70;99.90;;;;;;5060377;28;20041;-72
2022/08/20 09:12:05;;;;;;;7.70;1.17;;;19.70;99.90;;;;;;5063915;28;20044;-75
2022/08/20 09:14:30;;;;;;;9.18;1.23;;;19.70;99.90;;;;;;5061472;28;20109;-76
2022/08/20 09:16:56;;;;;;;7.45;1.20;;;19.80;99.90;;;;;;5058627;28;20033;-72
2022/08/20 09:19:21;;;;;;;8.05;1.42;;;19.90;99.90;;;;;;5059579;28;20041;-73
2022/08/20 09:21:47;;;;;;;8.40;0.90;;;19.90;99.90;;;;;;5063838;28;20075;-72
2022/08/20 09:24:13;;;;;;;7.07;1.20;;;19.80;99.90;;;;;;5061600;28;20510;-72
2022/08/20 09:26:38;;;;;;;7.63;1.23;;;19.80;99.90;;;;;;5061441;28;20040;-73
2022/08/20 09:29:04;;;;;;;6.55;1.45;;;19.90;99.90;;;;;;5057962;28;20080;-73
2022/08/20 09:31:29;;;;;;;8.60;0.95;;;20.00;99.90;;;;;;5061351;28;20049;-72
2022/08/20 09:33:55;;;;;;;8.63;3.03;;;20.00;99.90;;;;;;5063572;28;20032;-73
2022/08/20 09:36:21;;;;;;;5.93;1.35;;;20.40;99.90;;;;;;5062850;28;20089;-75
2022/08/20 09:38:46;;;;;;;7.47;1.67;;;20.00;99.90;;;;;;5060180;28;20040;-74
2022/08/20 09:41:12;;;;;;;5.88;1.10;;;20.10;99.90;;;;;;5060202;28;20069;-75
2022/08/20 09:43:38;;;;;;;4.50;1.05;;;20.90;99.90;;;;;;5061200;28;20171;-74
2022/08/20 09:46:03;;;;;;;4.15;1.02;;;20.20;99.90;;;;;;5063377;28;20037;-72
2022/08/20 09:48:29;;;;;;;4.70;1.23;;;20.30;99.90;;;;;;5062170;28;20131;-73
2022/08/20 09:50:54;;;;;;;5.65;1.10;;;20.30;99.90;;;;;;5059390;28;20055;-73
2022/08/20 09:53:21;;;;;;;5.25;0.90;;;20.30;99.90;;;;;;5059995;28;20048;-71
2022/08/20 09:55:52;;;;;;;4.93;1.55;;;21.10;99.90;;;;;;5062876;28;20159;-72
2022/08/20 09:58:25;;;;;;;4.78;0.85;;;20.30;99.90;;;;;;5062203;28;20115;-72
2022/08/20 10:00:51;;;;;;;5.85;1.33;;;20.40;99.90;;;;;;5051614;28;20084;-72
2022/08/20 10:03:18;;;;;;;7.07;1.40;;;20.40;99.90;;;;;;5058347;28;20493;-71
2022/08/20 10:05:43;;;;;;;7.55;1.00;;;20.50;99.90;;;;;;5060658;28;20045;-71
2022/08/20 10:08:10;;;;;;;3.63;1.10;;;20.70;99.90;;;;;;5062991;28;20111;-71
2022/08/20 10:10:36;;;;;;;9.48;2.10;;;20.60;99.90;;;;;;5062035;28;20049;-72
2022/08/20 10:13:01;;;;;;;14.55;6.28;;;20.60;99.90;;;;;;5059000;28;20550;-71
2022/08/20 10:15:28;;;;;;;5.85;1.35;;;20.60;99.90;;;;;;5059584;28;20375;-72
2022/08/20 10:17:55;;;;;;;4.05;0.90;;;20.60;99.90;;;;;;5051056;28;20045;-72
2022/08/20 10:20:22;;;;;;;5.30;1.00;;;20.70;99.90;;;;;;5057622;28;20074;-72
2022/08/20 10:22:48;;;;;;;5.57;1.25;;;20.80;99.90;;;;;;5061931;28;20102;-73
2022/08/20 10:25:16;;;;;;;7.18;1.42;;;21.00;99.90;;;;;;5062268;28;20044;-73
2022/08/20 10:27:42;;;;;;;4.32;1.00;;;20.90;99.90;;;;;;5061056;28;20056;-73
2022/08/20 10:30:08;;;;;;;8.80;3.42;;;20.80;99.90;;;;;;5059083;28;20037;-74
2022/08/20 10:32:34;;;;;;;6.72;3.20;;;20.70;99.90;;;;;;5059734;28;20408;-74
2022/08/20 10:35:00;;;;;;;6.43;1.98;;;20.90;99.90;;;;;;5062564;28;20046;-73
2022/08/20 10:37:26;;;;;;;4.47;1.08;;;20.90;99.90;;;;;;5062918;28;20041;-73
2022/08/20 10:39:53;;;;;;;3.33;0.80;;;20.90;99.90;;;;;;5059005;28;20131;-73
2022/08/20 10:42:18;;;;;;;5.97;1.15;;;21.70;99.90;;;;;;5059481;28;20112;-75
2022/08/20 10:44:44;;;;;;;5.82;0.90;;;21.10;99.90;;;;;;5060922;28;20132;-75
2022/08/20 10:47:14;;;;;;;4.25;0.80;;;21.20;99.90;;;;;;5062008;28;20045;-73
2022/08/20 10:49:40;;;;;;;3.45;0.90;;;21.40;99.90;;;;;;5061053;28;20051;-73
2022/08/20 10:52:06;;;;;;;3.38;0.95;;;21.50;99.90;;;;;;5057911;28;20390;-73
2022/08/20 10:54:31;;;;;;;3.88;0.75;;;21.50;99.90;;;;;;5058580;28;20053;-72
2022/08/20 10:57:04;;;;;;;6.97;1.00;;;21.60;99.90;;;;;;5062669;28;20431;-75
2022/08/20 10:59:30;;;;;;;6.22;1.20;;;21.60;99.90;;;;;;5062204;28;20123;-71
2022/08/20 11:01:55;;;;;;;7.63;1.50;;;21.60;99.90;;;;;;5057670;28;20116;-74
2022/08/20 11:04:21;;;;;;;5.93;2.10;;;21.90;99.90;;;;;;5059019;28;20382;-72
2022/08/20 11:06:47;;;;;;;5.15;1.30;;;21.60;99.90;;;;;;5060836;28;20048;-75
2022/08/20 11:09:13;;;;;;;5.75;0.93;;;21.60;99.90;;;;;;5061448;28;20502;-75
2022/08/20 11:11:38;;;;;;;5.43;1.33;;;21.60;99.90;;;;;;5061771;28;20040;-74
2022/08/20 11:14:04;;;;;;;5.25;1.10;;;21.50;99.90;;;;;;5059039;28;20044;-75
2022/08/20 11:16:29;;;;;;;9.40;2.00;;;21.60;99.90;;;;;;5058798;28;20055;-72
2022/08/20 11:18:55;;;;;;;3.95;0.77;;;21.70;99.90;;;;;;5065073;28;20044;-73
2022/08/20 11:21:21;;;;;;;7.43;0.85;;;21.80;99.90;;;;;;5066148;28;20037;-75
2022/08/20 11:23:46;;;;;;;4.22;1.23;;;21.90;99.90;;;;;;5063722;28;20131;-72
2022/08/20 11:26:20;;;;;;;7.70;1.55;;;22.00;99.90;;;;;;5062952;28;20468;-74
2022/08/20 11:28:46;;;;;;;4.57;1.63;;;22.30;99.90;;;;;;5062790;28;20080;-72
2022/08/20 11:31:11;;;;;;;8.55;1.10;;;21.90;99.90;;;;;;5066851;28;20110;-72
2022/08/20 11:33:37;;;;;;;7.93;2.05;;;21.90;99.90;;;;;;5065935;28;20037;-74
2022/08/20 11:36:03;;;;;;;7.40;1.73;;;21.90;99.90;;;;;;5052294;28;20099;-75
2022/08/20 11:38:28;;;;;;;7.57;1.70;;;22.00;99.90;;;;;;5062254;28;20076;-75
2022/08/20 11:40:54;;;;;;;7.28;1.58;;;22.20;99.90;;;;;;5064884;28;20029;-76
2022/08/20 11:43:19;;;;;;;21.58;15.45;;;22.30;99.90;;;;;;5064893;28;20049;-76
2022/08/20 11:45:48;;;;;;;6.32;2.67;;;22.80;99.90;;;;;;5064779;28;20074;-73
2022/08/20 11:48:14;;;;;;;7.13;1.40;;;22.70;99.90;;;;;;5061795;28;20124;-72
2022/08/20 11:50:40;;;;;;;6.60;1.95;;;22.60;99.90;;;;;;5061500;28;20045;-73
2022/08/20 11:53:05;;;;;;;3.92;1.33;;;22.60;99.70;;;;;;5065739;28;20549;-73
2022/08/20 11:55:31;;;;;;;6.45;1.80;;;22.40;99.20;;;;;;5065667;28;20075;-72
2022/08/20 11:57:57;;;;;;;4.82;1.10;;;22.30;98.90;;;;;;5062194;28;20044;-73
2022/08/20 12:00:23;;;;;;;6.30;1.30;;;22.20;99.00;;;;;;5061885;28;20444;-73
2022/08/20 12:02:50;;;;;;;6.60;1.38;;;22.10;98.50;;;;;;5063130;28;20044;-72
2022/08/20 12:05:17;;;;;;;5.47;1.23;;;22.80;98.50;;;;;;5064525;28;20504;-73
2022/08/20 12:07:43;;;;;;;6.43;1.52;;;22.10;98.60;;;;;;5064964;28;20093;-73
2022/08/20 12:10:09;;;;;;;5.63;1.35;;;22.10;98.30;;;;;;5061871;28;20049;-75
2022/08/20 12:12:37;;;;;;;4.80;1.38;;;22.00;98.50;;;;;;5061150;28;20037;-76
2022/08/20 12:15:04;;;;;;;7.45;1.50;;;22.00;98.50;;;;;;5064677;28;20040;-72
2022/08/20 12:17:31;;;;;;;3.72;0.82;;;22.00;98.10;;;;;;5065124;28;20044;-72
2022/08/20 12:19:59;;;;;;;6.10;1.67;;;22.20;97.10;;;;;;5061883;28;20081;-73
2022/08/20 12:22:25;;;;;;;7.15;1.10;;;22.30;97.80;;;;;;5061611;28;20045;-73
2022/08/20 12:24:52;;;;;;;7.97;1.45;;;22.50;97.40;;;;;;5061865;28;20049;-73
2022/08/20 12:27:22;;;;;;;9.23;1.55;;;22.70;97.00;;;;;;5065052;28;20032;-73
2022/08/20 12:29:52;;;;;;;10.52;1.35;;;23.00;96.80;;;;;;5063348;28;20388;-72
2022/08/20 12:32:18;;;;;;;4.25;1.13;;;23.30;96.70;;;;;;5060758;28;20441;-73
2022/08/20 12:34:44;;;;;;;5.75;1.35;;;23.50;96.70;;;;;;5061500;28;20503;-73
2022/08/20 12:37:13;;;;;;;6.63;1.05;;;23.70;96.50;;;;;;5063970;28;20476;-73
2022/08/20 12:39:41;;;;;;;4.85;1.25;;;23.80;95.80;;;;;;5064177;28;20048;-73
2022/08/20 12:42:08;;;;;;;8.38;1.58;;;24.30;95.70;;;;;;5062096;28;20134;-74
2022/08/20 12:44:34;;;;;;;5.72;1.20;;;23.80;95.40;;;;;;5061205;28;20045;-77
2022/08/20 12:47:13;;;;;;;12.07;1.48;;;23.40;95.80;;;;;;5062370;28;20090;-73
2022/08/20 12:49:41;;;;;;;5.65;1.33;;;23.30;96.60;;;;;;5064619;28;20162;-74
2022/08/20 12:52:08;;;;;;;6.43;1.35;;;23.30;96.50;;;;;;5060329;28;20052;-74
2022/08/20 12:54:34;;;;;;;6.55;1.75;;;23.20;96.40;;;;;;5060930;28;20128;-74
2022/08/20 12:57:00;;;;;;;7.85;1.27;;;23.20;96.00;;;;;;5063683;28;20132;-76